createdAt,value
2023-01-30T00:02:26.251Z,-1.66
2023-01-30T00:04:54.199Z,-1.69
2023-01-30T00:07:23.371Z,-1.70
2023-01-30T00:09:51.160Z,-1.71
2023-01-30T00:12:18.940Z,-1.71
2023-01-30T00:14:46.730Z,-1.74
2023-01-30T00:17:14.543Z,-1.76
2023-01-30T00:19:42.440Z,-1.77
2023-01-30T00:22:10.335Z,-1.80
2023-01-30T00:24:39.638Z,-1.74
2023-01-30T00:27:07.635Z,-1.71
2023-01-30T00:29:37.103Z,-1.71
2023-01-30T00:32:04.975Z,-1.69
2023-01-30T00:34:32.802Z,-1.71
2023-01-30T00:37:08.076Z,-1.72
2023-01-30T00:39:36.551Z,-1.71
2023-01-30T00:42:23.900Z,-1.72
2023-01-30T00:45:09.146Z,-1.71
2023-01-30T00:47:37.012Z,-1.75
2023-01-30T00:50:05.493Z,-1.76
2023-01-30T00:52:33.357Z,-1.78
2023-01-30T00:55:01.258Z,-1.77
2023-01-30T00:57:30.571Z,-1.75
2023-01-30T00:59:58.455Z,-1.77
2023-01-30T01:02:26.420Z,-1.75
2023-01-30T01:04:54.261Z,-1.74
2023-01-30T01:07:22.224Z,-1.75
2023-01-30T01:09:50.047Z,-1.77
2023-01-30T01:12:17.906Z,-1.78
2023-01-30T01:14:47.139Z,-1.78
2023-01-30T01:17:15.036Z,-1.79
2023-01-30T01:19:43.222Z,-1.78
2023-01-30T01:22:11.057Z,-1.77
2023-01-30T01:24:38.800Z,-1.77
2023-01-30T01:27:06.565Z,-1.74
2023-01-30T01:29:34.334Z,-1.78
2023-01-30T01:32:03.558Z,-1.79
2023-01-30T01:34:31.334Z,-1.80
2023-01-30T01:36:59.609Z,-1.83
2023-01-30T01:39:47.402Z,-1.78
2023-01-30T01:42:14.156Z,-1.80
2023-01-30T01:45:01.702Z,-1.81
2023-01-30T01:47:32.549Z,-1.80
2023-01-30T01:50:00.840Z,-1.80
2023-01-30T01:52:30.341Z,-1.82
2023-01-30T01:55:02.471Z,-1.80
2023-01-30T01:57:35.902Z,-1.83
2023-01-30T02:00:09.882Z,-1.85
2023-01-30T02:02:48.885Z,-1.84
2023-01-30T02:05:21.059Z,-1.81
2023-01-30T02:07:53.400Z,-1.82
2023-01-30T02:10:24.544Z,-1.84
2023-01-30T02:12:52.850Z,-1.82
2023-01-30T02:15:23.069Z,-1.82
2023-01-30T02:17:52.198Z,-1.80
2023-01-30T02:20:28.808Z,-1.83
2023-01-30T02:23:27.331Z,-1.85
2023-01-30T02:26:47.188Z,-1.86
2023-01-30T02:29:48.426Z,-1.86
2023-01-30T02:32:25.576Z,-1.86
2023-01-30T02:35:02.730Z,-1.89
2023-01-30T02:37:44.240Z,-1.89
2023-01-30T02:40:24.583Z,-1.92
2023-01-30T02:43:02.814Z,-1.93
2023-01-30T02:45:37.453Z,-1.92
2023-01-30T02:48:08.681Z,-1.90
2023-01-30T02:50:41.781Z,-1.90
2023-01-30T02:53:09.985Z,-1.88
2023-01-30T02:55:41.068Z,-1.88
2023-01-30T02:58:09.107Z,-1.91
2023-01-30T03:00:53.740Z,-1.95
2023-01-30T03:03:44.835Z,-1.97
2023-01-30T03:06:30.212Z,-1.93
2023-01-30T03:09:08.679Z,-1.95
2023-01-30T03:11:45.767Z,-1.94
2023-01-30T03:14:21.720Z,-1.92
2023-01-30T03:16:53.261Z,-1.91
2023-01-30T03:19:22.789Z,-1.94
2023-01-30T03:21:50.556Z,-1.89
2023-01-30T03:24:19.222Z,-1.90
2023-01-30T03:26:54.072Z,-1.90
2023-01-30T03:29:21.979Z,-1.86
2023-01-30T03:31:50.049Z,-1.91
2023-01-30T03:34:17.882Z,-1.88
2023-01-30T03:36:48.079Z,-1.82
2023-01-30T03:39:16.947Z,-1.82
2023-01-30T03:41:45.091Z,-1.83
2023-01-30T03:44:13.088Z,-1.85
2023-01-30T03:46:43.112Z,-1.80
2023-01-30T03:49:10.978Z,-1.80
2023-01-30T03:51:38.837Z,-1.78
2023-01-30T03:54:08.136Z,-1.75
2023-01-30T03:56:35.954Z,-1.82
2023-01-30T03:59:03.901Z,-1.82
2023-01-30T04:01:39.400Z,-1.82
2023-01-30T04:04:07.441Z,-1.80
2023-01-30T04:06:36.642Z,-1.78
2023-01-30T04:09:06.054Z,-1.75
2023-01-30T04:11:54.783Z,-1.76
2023-01-30T04:14:23.708Z,-1.81
2023-01-30T04:17:17.595Z,-1.79
2023-01-30T04:20:09.632Z,-1.81
2023-01-30T04:22:39.256Z,-1.87
2023-01-30T04:25:07.560Z,-1.86
2023-01-30T04:27:36.761Z,-1.87
2023-01-30T04:30:14.050Z,-1.91
2023-01-30T04:32:42.762Z,-1.92
2023-01-30T04:35:12.301Z,-1.93
2023-01-30T04:37:41.059Z,-1.90
2023-01-30T04:40:12.112Z,-1.91
2023-01-30T04:42:41.392Z,-1.92
2023-01-30T04:45:38.699Z,-1.98
2023-01-30T04:48:06.893Z,-1.93
2023-01-30T04:50:35.726Z,-1.99
2023-01-30T04:53:03.648Z,-1.98
2023-01-30T04:55:31.439Z,-1.97
2023-01-30T04:58:00.726Z,-1.96
2023-01-30T05:00:28.837Z,-1.97
2023-01-30T05:03:00.529Z,-1.90
2023-01-30T05:05:29.155Z,-1.90
2023-01-30T05:07:56.983Z,-1.90
2023-01-30T05:10:24.839Z,-1.88
2023-01-30T05:12:52.771Z,-1.86
2023-01-30T05:15:22.193Z,-1.84
2023-01-30T05:17:50.159Z,-1.83
2023-01-30T05:20:18.454Z,-1.83
2023-01-30T05:22:46.338Z,-1.83
2023-01-30T05:25:14.185Z,-1.78
2023-01-30T05:27:42.047Z,-1.76
2023-01-30T05:30:11.256Z,-1.76
2023-01-30T05:32:40.532Z,-1.74
2023-01-30T05:35:09.261Z,-1.72
2023-01-30T05:37:37.856Z,-1.73
2023-01-30T05:40:07.063Z,-1.66
2023-01-30T05:42:34.985Z,-1.61
2023-01-30T05:45:02.759Z,-1.59
2023-01-30T05:47:30.567Z,-1.57
2023-01-30T05:49:59.788Z,-1.55
2023-01-30T05:52:27.799Z,-1.52
2023-01-30T05:54:55.704Z,-1.59
2023-01-30T05:57:23.546Z,-1.55
2023-01-30T05:59:51.407Z,-1.55
2023-01-30T06:02:19.216Z,-1.49
2023-01-30T06:04:47.115Z,-1.50
2023-01-30T06:07:16.885Z,-1.50
2023-01-30T06:09:44.738Z,-1.52
2023-01-30T06:12:12.562Z,-1.50
2023-01-30T06:14:40.510Z,-1.46
2023-01-30T06:17:08.344Z,-1.44
2023-01-30T06:19:36.219Z,-1.41
2023-01-30T06:22:04.230Z,-1.37
2023-01-30T06:24:33.497Z,-1.38
2023-01-30T06:27:01.317Z,-1.33
2023-01-30T06:29:29.088Z,-1.31
2023-01-30T06:31:56.913Z,-1.25
2023-01-30T06:34:24.737Z,-1.29
2023-01-30T06:36:52.613Z,-1.29
2023-01-30T06:39:20.455Z,-1.27
2023-01-30T06:41:49.737Z,-1.26
2023-01-30T06:44:17.613Z,-1.25
2023-01-30T06:46:45.672Z,-1.20
2023-01-30T06:49:13.502Z,-1.23
2023-01-30T06:51:41.305Z,-1.20
2023-01-30T06:54:09.112Z,-1.21
2023-01-30T06:56:37.023Z,-1.15
2023-01-30T06:59:06.204Z,-1.16
2023-01-30T07:01:34.080Z,-1.17
2023-01-30T07:04:01.929Z,-1.15
2023-01-30T07:06:29.781Z,-1.14
2023-01-30T07:08:58.584Z,-1.15
2023-01-30T07:11:26.683Z,-1.14
2023-01-30T07:13:54.852Z,-1.14
2023-01-30T07:16:29.488Z,-1.09
2023-01-30T07:18:58.666Z,-1.08
2023-01-30T07:21:27.276Z,-1.06
2023-01-30T07:23:55.243Z,-1.04
2023-01-30T07:26:23.821Z,-1.04
2023-01-30T07:28:51.667Z,-0.99
2023-01-30T07:31:19.586Z,-0.98
2023-01-30T07:33:48.916Z,-0.96
2023-01-30T07:36:16.786Z,-0.92
2023-01-30T07:38:44.677Z,-0.86
2023-01-30T07:41:12.527Z,-0.85
2023-01-30T07:43:40.341Z,-0.81
2023-01-30T07:46:08.257Z,-0.80
2023-01-30T07:48:35.995Z,-0.80
2023-01-30T07:51:05.126Z,-0.78
2023-01-30T07:53:32.994Z,-0.76
2023-01-30T07:56:00.970Z,-0.74
2023-01-30T07:58:29.996Z,-0.70
2023-01-30T08:00:58.768Z,-0.68
2023-01-30T08:03:26.922Z,-0.61
2023-01-30T08:05:54.948Z,-0.54
2023-01-30T08:08:24.155Z,-0.48
2023-01-30T08:10:52.202Z,-0.49
2023-01-30T08:13:20.163Z,-0.45
2023-01-30T08:15:48.100Z,-0.48
2023-01-30T08:18:15.994Z,-0.44
2023-01-30T08:20:44.638Z,-0.39
2023-01-30T08:23:12.565Z,-0.35
2023-01-30T08:25:41.735Z,-0.28
2023-01-30T08:28:09.777Z,-0.23
2023-01-30T08:30:37.771Z,-0.11
2023-01-30T08:33:05.648Z,-0.02
2023-01-30T08:35:33.503Z,0.02
2023-01-30T08:38:03.352Z,0.11
2023-01-30T08:40:31.259Z,0.13
2023-01-30T08:43:00.763Z,0.21
2023-01-30T08:45:28.680Z,0.24
2023-01-30T08:47:59.835Z,0.28
2023-01-30T08:50:27.959Z,0.28
2023-01-30T08:52:56.224Z,0.38
2023-01-30T08:55:24.100Z,0.39
2023-01-30T08:57:51.958Z,0.43
2023-01-30T09:00:22.318Z,0.45
2023-01-30T09:02:50.151Z,0.50
2023-01-30T09:05:18.042Z,0.42
2023-01-30T09:07:45.922Z,0.43
2023-01-30T09:10:13.770Z,0.40
2023-01-30T09:12:41.559Z,0.49
2023-01-30T09:15:10.857Z,0.52
2023-01-30T09:17:40.108Z,0.55
2023-01-30T09:20:09.684Z,0.55
2023-01-30T09:22:37.886Z,0.61
2023-01-30T09:25:06.613Z,0.65
2023-01-30T09:27:35.124Z,0.62
2023-01-30T09:30:03.003Z,0.67
2023-01-30T09:32:31.461Z,0.73
2023-01-30T09:35:00.700Z,0.72
2023-01-30T09:37:28.523Z,0.75
2023-01-30T09:39:56.441Z,0.74
2023-01-30T09:42:50.103Z,0.81
2023-01-30T09:45:34.110Z,0.84
2023-01-30T09:48:10.786Z,0.94
2023-01-30T09:51:00.238Z,1.11
2023-01-30T09:53:36.102Z,1.19
2023-01-30T09:56:04.005Z,1.24
2023-01-30T09:58:42.280Z,1.34
2023-01-30T10:01:22.363Z,1.35
2023-01-30T10:04:02.631Z,1.36
2023-01-30T10:06:37.220Z,1.40
2023-01-30T10:09:12.388Z,1.47
2023-01-30T10:11:54.931Z,1.55
2023-01-30T10:14:40.166Z,1.61
2023-01-30T10:17:25.374Z,1.65
2023-01-30T10:20:14.097Z,1.64
2023-01-30T10:22:56.141Z,1.66
2023-01-30T10:25:30.871Z,1.70
2023-01-30T10:28:03.892Z,1.75
2023-01-30T10:30:32.276Z,1.86
2023-01-30T10:33:05.425Z,1.98
2023-01-30T10:35:36.861Z,2.07
2023-01-30T10:38:17.242Z,2.17
2023-01-30T10:40:50.456Z,2.26
2023-01-30T10:43:27.751Z,2.36
2023-01-30T10:46:04.543Z,2.41
2023-01-30T10:48:52.980Z,2.50
2023-01-30T10:51:33.625Z,2.51
2023-01-30T10:54:09.329Z,2.58
2023-01-30T10:56:43.703Z,2.66
2023-01-30T10:59:23.788Z,2.76
2023-01-30T11:02:00.496Z,2.74
2023-01-30T11:04:34.107Z,2.73
2023-01-30T11:07:03.209Z,2.73
2023-01-30T11:09:43.884Z,2.71
2023-01-30T11:12:13.420Z,2.64
2023-01-30T11:14:52.148Z,2.59
2023-01-30T11:17:21.171Z,2.55
2023-01-30T11:19:56.442Z,2.45
2023-01-30T11:22:26.994Z,2.43
2023-01-30T11:25:07.212Z,2.42
2023-01-30T11:27:36.149Z,2.34
2023-01-30T11:30:07.164Z,2.31
2023-01-30T11:32:35.223Z,2.37
2023-01-30T11:35:17.645Z,2.30
2023-01-30T11:37:46.910Z,2.31
2023-01-30T11:40:25.623Z,2.27
2023-01-30T11:43:00.284Z,2.28
2023-01-30T11:45:30.270Z,2.29
2023-01-30T11:48:04.563Z,2.30
2023-01-30T11:50:45.039Z,2.29
2023-01-30T11:53:29.185Z,2.33
2023-01-30T11:56:06.459Z,2.36
2023-01-30T11:58:37.185Z,2.37
2023-01-30T12:01:07.024Z,2.36
2023-01-30T12:03:40.515Z,2.31
2023-01-30T12:06:08.316Z,2.35
2023-01-30T12:08:42.735Z,2.33
2023-01-30T12:11:28.348Z,2.36
2023-01-30T12:14:08.667Z,2.32
2023-01-30T12:16:47.767Z,2.30
2023-01-30T12:19:27.483Z,2.31
2023-01-30T12:22:01.464Z,2.34
2023-01-30T12:24:35.566Z,2.34
2023-01-30T12:27:10.978Z,2.36
2023-01-30T12:29:43.931Z,2.34
2023-01-30T12:32:15.472Z,2.37
2023-01-30T12:34:45.460Z,2.41
2023-01-30T12:37:31.699Z,2.43
2023-01-30T12:40:09.324Z,2.53
2023-01-30T12:42:57.980Z,2.58
2023-01-30T12:45:27.675Z,2.66
2023-01-30T12:48:29.777Z,2.72
2023-01-30T12:51:10.001Z,2.74
2023-01-30T12:53:46.013Z,2.77
2023-01-30T12:56:46.931Z,2.80
2023-01-30T12:59:23.331Z,2.81
2023-01-30T13:02:08.229Z,2.80
2023-01-30T13:05:01.833Z,2.76
2023-01-30T13:07:44.596Z,2.90
2023-01-30T13:10:20.234Z,3.05
2023-01-30T13:13:01.212Z,3.01
2023-01-30T13:15:36.175Z,3.01
2023-01-30T13:18:14.727Z,2.89
2023-01-30T13:20:58.120Z,2.93
2023-01-30T13:23:37.906Z,2.85
2023-01-30T13:26:09.863Z,2.82
2023-01-30T13:28:41.183Z,2.83
2023-01-30T13:31:15.482Z,2.85
2023-01-30T13:33:46.407Z,2.85
2023-01-30T13:36:18.222Z,2.81
2023-01-30T13:38:57.828Z,2.79
2023-01-30T13:41:26.339Z,2.76
2023-01-30T13:43:55.644Z,2.76
2023-01-30T13:46:28.503Z,2.79
2023-01-30T13:49:05.995Z,2.72
2023-01-30T13:51:44.690Z,2.70
2023-01-30T13:54:30.531Z,2.67
2023-01-30T13:57:07.402Z,2.67
2023-01-30T14:00:07.209Z,2.58
2023-01-30T14:03:24.168Z,2.59
2023-01-30T14:06:04.781Z,2.53
2023-01-30T14:08:40.003Z,2.45
2023-01-30T14:11:33.040Z,2.45
2023-01-30T14:14:05.952Z,2.42
2023-01-30T14:16:47.943Z,2.38
2023-01-30T14:19:36.437Z,2.33
2023-01-30T14:22:19.221Z,2.32
2023-01-30T14:25:25.241Z,2.30
2023-01-30T14:27:54.368Z,2.26
2023-01-30T14:30:37.988Z,2.23
2023-01-30T14:33:33.983Z,2.27
2023-01-30T14:36:41.514Z,2.26
2023-01-30T14:39:41.957Z,2.24
2023-01-30T14:42:20.044Z,2.22
2023-01-30T14:45:03.293Z,2.20
2023-01-30T14:47:35.940Z,2.20
2023-01-30T14:50:20.804Z,2.13
2023-01-30T14:52:50.534Z,2.06
2023-01-30T14:55:23.784Z,2.04
2023-01-30T14:57:56.784Z,2.03
2023-01-30T15:00:29.181Z,2.04
2023-01-30T15:03:01.498Z,1.99
2023-01-30T15:05:33.818Z,1.99
2023-01-30T15:08:09.856Z,1.96
2023-01-30T15:10:53.688Z,1.96
2023-01-30T15:13:40.983Z,1.87
2023-01-30T15:16:23.592Z,1.80
2023-01-30T15:19:11.495Z,1.73
2023-01-30T15:22:04.208Z,1.72
2023-01-30T15:24:49.985Z,1.68
2023-01-30T15:27:33.990Z,1.61
2023-01-30T15:30:26.446Z,1.56
2023-01-30T15:33:10.289Z,1.56
2023-01-30T15:35:38.131Z,1.47
2023-01-30T15:38:05.983Z,1.45
2023-01-30T15:40:33.957Z,1.41
2023-01-30T15:43:38.015Z,1.46
2023-01-30T15:46:14.272Z,1.45
2023-01-30T15:48:56.052Z,1.44
2023-01-30T15:51:28.789Z,1.47
2023-01-30T15:53:59.195Z,1.45
2023-01-30T15:56:33.948Z,1.46
2023-01-30T15:59:04.109Z,1.49
2023-01-30T16:01:32.456Z,1.50
2023-01-30T16:04:07.982Z,1.50
2023-01-30T16:06:39.052Z,1.52
2023-01-30T16:09:19.077Z,1.50
2023-01-30T16:11:46.857Z,1.49
2023-01-30T16:14:18.243Z,1.52
2023-01-30T16:16:52.667Z,1.46
2023-01-30T16:19:29.870Z,1.45
2023-01-30T16:22:03.223Z,1.40
2023-01-30T16:24:33.081Z,1.31
2023-01-30T16:27:03.440Z,1.30
2023-01-30T16:29:34.661Z,1.25
2023-01-30T16:32:12.687Z,1.25
2023-01-30T16:34:41.782Z,1.24
2023-01-30T16:37:26.100Z,1.22
2023-01-30T16:40:05.935Z,1.17
2023-01-30T16:42:33.723Z,1.19
2023-01-30T16:45:43.168Z,1.17
2023-01-30T16:48:36.821Z,1.19
2023-01-30T16:51:17.853Z,1.18
2023-01-30T16:58:19.836Z,1.21
2023-01-30T17:00:52.110Z,1.18
2023-01-30T17:03:23.979Z,1.21
2023-01-30T17:05:52.576Z,1.23
2023-01-30T17:08:47.005Z,1.25
2023-01-30T17:11:35.868Z,1.26
2023-01-30T17:14:16.244Z,1.31
2023-01-30T17:16:46.256Z,1.35
2023-01-30T17:19:14.970Z,1.35
2023-01-30T17:21:59.566Z,1.38
2023-01-30T17:24:40.917Z,1.41
2023-01-30T17:27:09.107Z,1.42
2023-01-30T17:29:42.727Z,1.46
2023-01-30T17:32:25.970Z,1.51
2023-01-30T17:34:54.442Z,1.57
2023-01-30T17:37:23.137Z,1.58
2023-01-30T17:39:50.960Z,1.62
2023-01-30T17:42:21.079Z,1.58
2023-01-30T17:44:50.908Z,1.62
2023-01-30T17:47:19.016Z,1.60
2023-01-30T17:49:48.446Z,1.65
2023-01-30T17:52:16.284Z,1.67
2023-01-30T17:54:44.115Z,1.70
2023-01-30T17:57:15.565Z,1.71
2023-01-30T17:59:43.490Z,1.70
2023-01-30T18:02:11.663Z,1.70
2023-01-30T18:04:40.058Z,1.73
2023-01-30T18:07:16.479Z,1.75
2023-01-30T18:09:44.335Z,1.75
2023-01-30T18:12:14.780Z,1.74
2023-01-30T18:14:44.539Z,1.79
2023-01-30T18:17:12.670Z,1.81
2023-01-30T18:19:40.610Z,1.79
2023-01-30T18:22:09.879Z,1.84
2023-01-30T18:24:37.686Z,1.83
2023-01-30T18:27:05.625Z,1.88
2023-01-30T18:29:33.451Z,1.87
2023-01-30T18:32:07.781Z,1.90
2023-01-30T18:34:37.583Z,1.91
2023-01-30T18:37:05.552Z,1.93
2023-01-30T18:39:34.812Z,1.94
2023-01-30T18:42:03.113Z,1.94
2023-01-30T18:44:30.931Z,2.00
2023-01-30T18:46:59.142Z,1.98
2023-01-30T18:49:27.065Z,1.98
2023-01-30T18:51:54.970Z,2.01
2023-01-30T18:54:24.009Z,2.00
2023-01-30T18:56:53.280Z,2.03
2023-01-30T18:59:21.238Z,2.01
2023-01-30T19:01:49.125Z,2.03
2023-01-30T19:04:16.922Z,2.03
2023-01-30T19:06:45.261Z,2.09
2023-01-30T19:09:14.915Z,2.07
2023-01-30T19:12:00.592Z,2.06
2023-01-30T19:14:30.783Z,2.11
2023-01-30T19:16:59.631Z,2.13
2023-01-30T19:19:28.173Z,2.16
2023-01-30T19:21:56.033Z,2.16
2023-01-30T19:24:25.092Z,2.21
2023-01-30T19:26:53.106Z,2.20
2023-01-30T19:29:22.143Z,2.23
2023-01-30T19:31:57.749Z,2.23
2023-01-30T19:34:28.227Z,2.24
2023-01-30T19:36:56.076Z,2.26
2023-01-30T19:39:23.997Z,2.23
2023-01-30T19:41:51.785Z,2.23
2023-01-30T19:44:19.733Z,2.23
2023-01-30T19:46:48.301Z,2.25
2023-01-30T19:49:20.942Z,2.26
2023-01-30T19:51:48.949Z,2.27
2023-01-30T19:54:16.773Z,2.27
2023-01-30T19:56:48.319Z,2.27
2023-01-30T19:59:16.876Z,2.26
2023-01-30T20:01:47.243Z,2.28
2023-01-30T20:04:15.151Z,2.28
2023-01-30T20:06:45.993Z,2.28
2023-01-30T20:09:16.128Z,2.30
2023-01-30T20:11:44.707Z,2.30
2023-01-30T20:14:15.118Z,2.33
2023-01-30T20:16:43.516Z,2.29
2023-01-30T20:19:14.567Z,2.32
2023-01-30T20:21:44.185Z,2.29
2023-01-30T20:24:14.039Z,2.26
2023-01-30T20:26:42.579Z,2.24
2023-01-30T20:29:11.658Z,2.24
2023-01-30T20:31:40.213Z,2.22
2023-01-30T20:34:14.621Z,2.21
2023-01-30T20:36:43.901Z,2.21
2023-01-30T20:39:12.541Z,2.23
2023-01-30T20:41:43.591Z,2.21
2023-01-30T20:44:13.497Z,2.22
2023-01-30T20:46:42.734Z,2.26
2023-01-30T20:49:14.245Z,2.26
2023-01-30T20:51:42.163Z,2.18
2023-01-30T20:54:13.303Z,2.23
2023-01-30T20:56:43.799Z,2.20
2023-01-30T20:59:13.766Z,2.16
2023-01-30T21:01:42.427Z,2.16
2023-01-30T21:04:15.650Z,2.17
2023-01-30T21:06:47.124Z,2.17
2023-01-30T21:09:18.555Z,2.15
2023-01-30T21:11:48.444Z,2.12
2023-01-30T21:14:19.350Z,2.13
2023-01-30T21:16:47.724Z,2.11
2023-01-30T21:19:16.946Z,2.12
2023-01-30T21:21:50.448Z,2.17
2023-01-30T21:24:22.439Z,2.15
2023-01-30T21:26:50.611Z,2.19
2023-01-30T21:29:25.090Z,2.17
2023-01-30T21:31:53.426Z,2.19
2023-01-30T21:34:21.463Z,2.21
2023-01-30T21:37:04.544Z,2.19
2023-01-30T21:39:52.185Z,2.20
2023-01-30T21:42:37.720Z,2.18
2023-01-30T21:45:07.462Z,2.14
2023-01-30T21:47:35.340Z,2.17
2023-01-30T21:50:03.232Z,2.21
2023-01-30T21:52:33.122Z,2.22
2023-01-30T21:55:02.411Z,2.21
2023-01-30T21:57:30.274Z,2.20
2023-01-30T21:59:59.166Z,2.19
2023-01-30T22:02:27.082Z,2.25
2023-01-30T22:04:57.695Z,2.22
2023-01-30T22:07:25.525Z,2.20
2023-01-30T22:09:53.415Z,2.21
2023-01-30T22:12:23.226Z,2.23
2023-01-30T22:14:51.054Z,2.24
2023-01-30T22:17:18.978Z,2.24
2023-01-30T22:19:47.360Z,2.24
2023-01-30T22:22:15.120Z,2.26
2023-01-30T22:24:42.987Z,2.25
2023-01-30T22:27:10.797Z,2.27
2023-01-30T22:29:40.005Z,2.26
2023-01-30T22:32:08.575Z,2.24
2023-01-30T22:34:36.854Z,2.25
2023-01-30T22:37:04.767Z,2.25
2023-01-30T22:39:32.590Z,2.28
2023-01-30T22:42:01.251Z,2.27
2023-01-30T22:44:29.190Z,2.27
2023-01-30T22:46:58.545Z,2.25
2023-01-30T22:49:26.507Z,2.26
2023-01-30T22:51:54.415Z,2.28
2023-01-30T22:54:25.433Z,2.26
2023-01-30T22:56:53.293Z,2.26
2023-01-30T22:59:21.710Z,2.25
2023-01-30T23:02:00.708Z,2.33
2023-01-30T23:04:30.361Z,2.27
2023-01-30T23:06:59.518Z,2.26
2023-01-30T23:09:27.319Z,2.28
2023-01-30T23:12:16.152Z,2.29
2023-01-30T23:14:44.994Z,2.28
2023-01-30T23:17:30.092Z,2.26
2023-01-30T23:19:59.416Z,2.27
2023-01-30T23:22:27.679Z,2.30
2023-01-30T23:24:55.513Z,2.30
2023-01-30T23:27:23.478Z,2.33
2023-01-30T23:29:51.329Z,2.29
2023-01-30T23:32:20.567Z,2.33
2023-01-30T23:34:48.934Z,2.27
2023-01-30T23:37:18.177Z,2.27
2023-01-30T23:39:46.441Z,2.26
2023-01-30T23:42:14.300Z,2.27
2023-01-30T23:44:42.083Z,2.28
2023-01-30T23:47:10.347Z,2.26
2023-01-30T23:49:38.721Z,2.30
2023-01-30T23:52:07.222Z,2.28
2023-01-30T23:54:36.727Z,2.28
2023-01-30T23:57:04.633Z,2.30
2023-01-30T23:59:32.921Z,2.34
